Time;durP1;ratioP1;P1;durP2;ratioP2;P2;SDS_P1;SDS_P2;PMS_P1;PMS_P2;Temp;Humidity;BMP_temperature;BMP_pressure;BME280_temperature;BME280_humidity;BME280_pressure;Samples;Min_cycle;Max_cycle;Signal;HPM_P1;HPM_P2
2022/11/23 04:02:34;;;;;;;;;;;9.20;99.90;;;;;;5208418;23;19926;-71
2022/11/23 04:05:08;;;;;;;;;;;9.20;99.90;;;;;;4972961;28;20035;-71
2022/11/23 04:07:58;;;;;;;;;;;9.20;99.90;;;;;;4945275;28;19973;-71
2022/11/23 04:10:28;;;;;;;;;;;9.20;99.90;;;;;;4972950;28;20491;-71
2022/11/23 04:13:07;;;;;;;;;;;9.20;99.90;;;;;;4952691;29;20013;-71
2022/11/23 04:15:35;;;;;;;;;;;9.10;99.90;;;;;;4969336;28;19927;-71
2022/11/23 04:18:04;;;;;;;;;;;9.10;99.90;;;;;;4970147;28;19926;-71
2022/11/23 04:20:31;;;;;;;;;;;9.20;99.90;;;;;;4970910;28;19926;-71
2022/11/23 04:22:58;;;;;;;;;;;9.10;99.90;;;;;;4953460;28;19935;-71
2022/11/23 04:25:26;;;;;;;;;;;9.10;99.90;;;;;;4966601;28;19927;-71
2022/11/23 04:27:53;;;;;;;;;;;9.10;99.90;;;;;;4964237;28;19983;-71
2022/11/23 04:30:20;;;;;;;;;;;9.10;99.90;;;;;;4954268;29;19981;-70
2022/11/23 04:32:47;;;;;;;;;;;9.10;99.90;;;;;;4970520;28;19935;-71
2022/11/23 04:35:18;;;;;;;;;;;9.10;99.90;;;;;;4970552;28;19926;-71
2022/11/23 04:37:48;;;;;;;;;;;9.10;99.90;;;;;;4944416;28;19946;-71
2022/11/23 04:40:17;;;;;;;;;;;9.10;99.90;;;;;;4970260;28;19927;-71
2022/11/23 04:42:53;;;;;;;;;;;9.00;99.90;;;;;;4970415;28;19926;-71
2022/11/23 04:45:20;;;;;;;;;;;9.00;99.90;;;;;;4970508;28;20369;-70
2022/11/23 04:47:47;;;;;;;;;;;9.00;99.90;;;;;;4954516;28;19926;-71
2022/11/23 04:50:18;;;;;;;;;;;9.00;99.90;;;;;;4949458;29;19981;-71
2022/11/23 04:52:50;;;;;;;;;;;9.00;99.90;;;;;;4947275;28;19976;-71
2022/11/23 04:55:23;;;;;;;;;;;9.00;99.90;;;;;;4954350;28;19957;-71
2022/11/23 04:58:02;;;;;;;;;;;8.90;99.90;;;;;;4951374;29;19927;-71
2022/11/23 05:00:31;;;;;;;;;;;8.90;99.90;;;;;;4953878;29;20305;-71
2022/11/23 05:03:00;;;;;;;;;;;8.80;99.90;;;;;;4969813;28;19930;-71
2022/11/23 05:05:32;;;;;;;;;;;8.80;99.90;;;;;;4970227;28;19930;-71
2022/11/23 05:07:59;;;;;;;;;;;8.70;99.90;;;;;;4954304;28;19958;-71
2022/11/23 05:10:38;;;;;;;;;;;8.70;99.90;;;;;;4953410;28;20409;-69
2022/11/23 05:13:05;;;;;;;;;;;8.70;99.90;;;;;;4969901;28;19927;-71
2022/11/23 05:15:32;;;;;;;;;;;8.70;99.90;;;;;;4953768;28;19926;-71
2022/11/23 05:18:05;;;;;;;;;;;8.70;99.90;;;;;;4955377;28;19926;-71
2022/11/23 05:20:33;;;;;;;;;;;8.70;99.90;;;;;;4953676;28;19926;-71
2022/11/23 05:23:00;;;;;;;;;;;8.70;99.90;;;;;;4953595;28;20480;-70
2022/11/23 05:25:29;;;;;;;;;;;8.70;99.90;;;;;;4969839;28;19982;-71
2022/11/23 05:28:01;;;;;;;;;;;8.70;99.90;;;;;;4953525;28;19990;-71
2022/11/23 05:30:29;;;;;;;;;;;8.70;99.90;;;;;;4953535;29;19927;-71
2022/11/23 05:32:59;;;;;;;;;;;8.70;99.90;;;;;;4968824;28;19927;-71
2022/11/23 05:35:26;;;;;;;;;;;8.70;99.90;;;;;;4953275;29;19926;-71
2022/11/23 05:37:55;;;;;;;;;;;8.80;99.90;;;;;;4952469;29;19927;-71
2022/11/23 05:40:22;;;;;;;;;;;8.80;99.90;;;;;;4953033;29;20044;-71
2022/11/23 05:42:54;;;;;;;;;;;8.80;99.90;;;;;;4951229;28;19927;-71
2022/11/23 05:45:21;;;;;;;;;;;8.70;99.90;;;;;;4969581;28;19930;-70
2022/11/23 05:47:53;;;;;;;;;;;8.70;99.90;;;;;;4969441;28;19926;-71
2022/11/23 05:50:27;;;;;;;;;;;8.70;99.90;;;;;;4954297;28;19926;-70
2022/11/23 05:53:16;;;;;;;;;;;8.70;99.90;;;;;;4954033;28;19926;-70
2022/11/23 05:55:45;;;;;;;;;;;8.70;99.90;;;;;;4970760;28;19977;-71
2022/11/23 05:58:13;;;;;;;;;;;8.70;99.90;;;;;;4953606;29;19926;-70
2022/11/23 06:00:40;;;;;;;;;;;8.70;99.90;;;;;;4951824;29;19927;-68
2022/11/23 06:03:08;;;;;;;;;;;8.60;99.90;;;;;;4963308;28;19949;-70
2022/11/23 06:05:35;;;;;;;;;;;8.50;99.90;;;;;;4967253;28;19926;-72
2022/11/23 06:08:02;;;;;;;;;;;8.50;99.90;;;;;;4967857;28;20548;-71
2022/11/23 06:10:30;;;;;;;;;;;8.50;99.90;;;;;;4966798;28;19934;-71
2022/11/23 06:13:01;;;;;;;;;;;8.40;99.90;;;;;;4952386;28;19996;-70
2022/11/23 06:15:28;;;;;;;;;;;8.40;99.90;;;;;;4940616;28;19931;-71
2022/11/23 06:17:58;;;;;;;;;;;8.40;99.90;;;;;;4968163;28;19942;-70
2022/11/23 06:20:31;;;;;;;;;;;8.30;99.90;;;;;;4967978;28;19973;-69
2022/11/23 06:23:01;;;;;;;;;;;8.30;99.90;;;;;;4948395;28;19966;-69
2022/11/23 06:25:28;;;;;;;;;;;8.30;99.90;;;;;;4965615;28;20024;-71
2022/11/23 06:28:11;;;;;;;;;;;8.20;99.90;;;;;;4968110;28;20393;-69
2022/11/23 06:30:45;;;;;;;;;;;8.20;99.90;;;;;;4966442;28;19938;-70
2022/11/23 06:33:13;;;;;;;;;;;8.20;99.90;;;;;;4967420;28;19933;-72
2022/11/23 06:35:53;;;;;;;;;;;8.20;99.90;;;;;;4951612;28;19937;-70
2022/11/23 06:38:20;;;;;;;;;;;8.10;99.90;;;;;;4967545;28;19954;-70
2022/11/23 06:40:52;;;;;;;;;;;8.00;99.90;;;;;;4960835;28;19930;-70
2022/11/23 06:43:21;;;;;;;;;;;8.00;99.90;;;;;;4951338;28;19931;-70
2022/11/23 06:45:49;;;;;;;;;;;8.00;99.90;;;;;;4967493;28;19926;-70
2022/11/23 06:48:16;;;;;;;;;;;8.00;99.90;;;;;;4951348;29;19927;-70
2022/11/23 06:50:46;;;;;;;;;;;7.90;99.90;;;;;;4951474;29;19938;-70
2022/11/23 06:53:14;;;;;;;;;;;7.90;99.90;;;;;;4967153;28;19931;-70
2022/11/23 06:55:46;;;;;;;;;;;7.90;99.90;;;;;;4951388;28;19946;-71
2022/11/23 06:58:16;;;;;;;;;;;7.80;99.90;;;;;;4967241;28;19927;-70
2022/11/23 07:00:45;;;;;;;;;;;7.80;99.90;;;;;;4967250;28;20393;-70
2022/11/23 07:03:18;;;;;;;;;;;7.80;99.90;;;;;;4954746;28;19926;-70
2022/11/23 07:05:45;;;;;;;;;;;7.80;99.90;;;;;;4954222;28;19933;-70
2022/11/23 07:08:12;;;;;;;;;;;7.80;99.90;;;;;;4971198;28;20024;-70
2022/11/23 07:10:39;;;;;;;;;;;7.90;99.90;;;;;;4970822;28;19986;-70
2022/11/23 07:13:10;;;;;;;;;;;7.90;99.90;;;;;;4954597;28;19926;-70
2022/11/23 07:15:37;;;;;;;;;;;7.90;99.90;;;;;;4970971;28;19934;-70
2022/11/23 07:18:06;;;;;;;;;;;7.90;99.90;;;;;;4970871;28;19927;-70
2022/11/23 07:20:35;;;;;;;;;;;7.80;99.90;;;;;;4970346;28;19981;-71
2022/11/23 07:23:03;;;;;;;;;;;7.80;99.90;;;;;;4970826;28;20409;-70
2022/11/23 07:25:30;;;;;;;;;;;7.80;99.90;;;;;;4970695;28;19927;-70
2022/11/23 07:27:57;;;;;;;;;;;7.80;99.90;;;;;;4970763;28;19942;-70
2022/11/23 07:30:24;;;;;;;;;;;7.80;99.90;;;;;;4970559;28;19926;-70
2022/11/23 07:32:51;;;;;;;;;;;7.70;99.90;;;;;;4970329;28;19933;-70
2022/11/23 07:35:20;;;;;;;;;;;7.60;99.90;;;;;;4970491;28;19927;-70
2022/11/23 07:37:47;;;;;;;;;;;7.70;99.90;;;;;;4954365;28;19940;-70
2022/11/23 07:40:14;;;;;;;;;;;7.70;99.90;;;;;;4970336;28;20393;-70
2022/11/23 07:42:41;;;;;;;;;;;7.70;99.90;;;;;;4952623;28;19934;-70
2022/11/23 07:45:08;;;;;;;;;;;7.70;99.90;;;;;;4970425;28;19926;-70
2022/11/23 07:47:37;;;;;;;;;;;7.70;99.90;;;;;;4954059;29;19927;-70
2022/11/23 07:50:05;;;;;;;;;;;7.70;99.90;;;;;;4970176;28;19926;-70
2022/11/23 07:52:34;;;;;;;;;;;7.80;99.90;;;;;;4953689;28;19930;-70
2022/11/23 07:55:01;;;;;;;;;;;7.80;99.90;;;;;;4953919;29;19927;-70
2022/11/23 07:57:28;;;;;;;;;;;7.80;99.90;;;;;;4954143;28;19940;-70
2022/11/23 07:59:55;;;;;;;;;;;7.80;99.90;;;;;;4953724;29;19930;-70
2022/11/23 08:02:22;;;;;;;;;;;7.80;99.90;;;;;;4953812;28;19934;-70
2022/11/23 08:04:48;;;;;;;;;;;7.90;99.90;;;;;;4970205;28;19954;-70
2022/11/23 08:07:15;;;;;;;;;;;7.90;99.90;;;;;;4970177;28;19973;-70
2022/11/23 08:09:43;;;;;;;;;;;7.90;99.90;;;;;;4953529;29;19926;-70
2022/11/23 08:12:10;;;;;;;;;;;8.00;99.90;;;;;;4969063;28;19933;-70
2022/11/23 08:14:37;;;;;;;;;;;8.00;99.90;;;;;;4953798;29;19942;-71
2022/11/23 08:17:04;;;;;;;;;;;8.00;99.90;;;;;;4953896;29;19930;-71
2022/11/23 08:19:31;;;;;;;;;;;8.00;99.90;;;;;;4953858;28;19926;-66
2022/11/23 08:21:57;;;;;;;;;;;8.10;99.90;;;;;;4951505;28;19935;-70
2022/11/23 08:24:24;;;;;;;;;;;8.10;99.90;;;;;;4953580;29;19931;-70
2022/11/23 08:26:52;;;;;;;;;;;8.10;99.90;;;;;;4970115;28;19981;-70
2022/11/23 08:29:19;;;;;;;;;;;8.10;99.90;;;;;;4969527;28;19963;-70
2022/11/23 08:31:46;;;;;;;;;;;8.10;99.90;;;;;;4953214;28;19964;-70
2022/11/23 08:34:13;;;;;;;;;;;8.20;99.90;;;;;;4953740;29;19926;-70
2022/11/23 08:36:40;;;;;;;;;;;8.30;99.90;;;;;;4953850;29;19927;-70
2022/11/23 08:39:07;;;;;;;;;;;8.30;99.90;;;;;;4969667;28;19933;-71
2022/11/23 08:41:34;;;;;;;;;;;8.40;99.90;;;;;;4969465;28;19931;-68
2022/11/23 08:44:02;;;;;;;;;;;8.40;99.90;;;;;;4969382;28;19930;-71
2022/11/23 08:46:29;;;;;;;;;;;8.50;99.90;;;;;;4969208;28;19939;-70
2022/11/23 08:48:56;;;;;;;;;;;8.50;99.90;;;;;;4969877;28;19933;-70
2022/11/23 08:51:22;;;;;;;;;;;8.50;99.90;;;;;;4953808;28;19933;-70
2022/11/23 08:53:49;;;;;;;;;;;8.60;99.90;;;;;;4953839;29;19930;-70
2022/11/23 08:56:16;;;;;;;;;;;8.60;99.90;;;;;;4969521;28;19927;-70
2022/11/23 08:58:43;;;;;;;;;;;8.70;99.90;;;;;;4969127;28;19926;-70
2022/11/23 09:01:12;;;;;;;;;;;8.80;99.90;;;;;;4969187;28;19933;-70
2022/11/23 09:03:39;;;;;;;;;;;8.80;99.90;;;;;;4969120;28;19933;-70
2022/11/23 09:06:06;;;;;;;;;;;8.80;99.90;;;;;;4970260;28;19939;-70
2022/11/23 09:08:33;;;;;;;;;;;8.90;99.90;;;;;;4953179;29;19933;-71
2022/11/23 09:11:00;;;;;;;;;;;9.00;99.90;;;;;;4968984;28;20457;-70
2022/11/23 09:13:27;;;;;;;;;;;9.00;99.90;;;;;;4969127;28;20002;-70
2022/11/23 09:15:56;;;;;;;;;;;9.00;99.90;;;;;;4950413;29;19927;-71
2022/11/23 09:18:25;;;;;;;;;;;9.10;99.90;;;;;;4966917;28;20382;-71
2022/11/23 09:20:51;;;;;;;;;;;9.20;99.90;;;;;;4952674;29;19927;-71
2022/11/23 09:23:18;;;;;;;;;;;9.30;99.90;;;;;;4968815;28;19930;-71
2022/11/23 09:25:47;;;;;;;;;;;9.50;99.90;;;;;;4952657;29;19930;-70
2022/11/23 09:28:14;;;;;;;;;;;9.50;99.90;;;;;;4969119;28;19926;-70
2022/11/23 09:30:41;;;;;;;;;;;9.60;99.90;;;;;;4952140;28;19949;-70
2022/11/23 09:33:08;;;;;;;;;;;9.70;99.90;;;;;;4949057;29;19927;-71
2022/11/23 09:35:36;;;;;;;;;;;9.90;99.90;;;;;;4949996;29;19930;-70
2022/11/23 09:38:03;;;;;;;;;;;10.00;99.90;;;;;;4952622;29;19934;-70
2022/11/23 09:40:33;;;;;;;;;;;10.10;99.90;;;;;;4952261;28;19926;-71
2022/11/23 09:43:14;;;;;;;;;;;10.10;99.90;;;;;;4951197;28;19987;-70
2022/11/23 09:45:46;;;;;;;;;;;10.10;99.90;;;;;;4949990;29;19926;-70
2022/11/23 09:48:17;;;;;;;;;;;10.00;99.90;;;;;;4952576;29;20362;-70
2022/11/23 09:50:47;;;;;;;;;;;9.80;99.90;;;;;;4966232;28;19938;-71
2022/11/23 09:53:16;;;;;;;;;;;9.90;99.90;;;;;;4950946;28;19942;-72
2022/11/23 09:55:44;;;;;;;;;;;10.10;99.90;;;;;;4946039;29;20380;-70
2022/11/23 09:58:14;;;;;;;;;;;10.30;99.90;;;;;;4968240;28;19942;-70
2022/11/23 10:00:43;;;;;;;;;;;10.40;99.90;;;;;;4968236;28;19934;-70
2022/11/23 10:03:14;;;;;;;;;;;10.50;99.90;;;;;;4951917;29;20338;-69
2022/11/23 10:05:43;;;;;;;;;;;10.70;99.90;;;;;;4968252;28;19930;-70
2022/11/23 10:08:17;;;;;;;;;;;10.90;99.90;;;;;;4952142;28;19931;-70
2022/11/23 10:10:45;;;;;;;;;;;11.00;99.90;;;;;;4950729;28;19934;-71
2022/11/23 10:13:19;;;;;;;;;;;11.00;99.90;;;;;;4948897;29;19934;-70
2022/11/23 10:15:53;;;;;;;;;;;11.30;99.90;;;;;;4968074;28;19933;-70
2022/11/23 10:18:27;;;;;;;;;;;15.50;99.90;;;;;;4949301;29;19931;-71
2022/11/23 10:20:57;;;;;;;;;;;18.70;99.90;;;;;;4961377;28;19926;-70
2022/11/23 10:23:34;;;;;;;;;;;20.90;99.90;;;;;;4966853;28;20372;-70
2022/11/23 10:26:01;;;;;;;;;;;21.20;99.90;;;;;;4949446;29;19933;-70
2022/11/23 10:28:29;;;;;;;;;;;22.40;99.90;;;;;;4967893;28;20029;-72
2022/11/23 10:31:01;;;;;;;;;;;23.00;99.90;;;;;;4967798;28;19990;-71
2022/11/23 10:33:29;;;;;;;;;;;23.20;99.90;;;;;;4951144;29;19974;-73
2022/11/23 10:35:56;;;;;;;;;;;24.70;99.90;;;;;;4951043;29;19934;-73
2022/11/23 10:38:25;;;;;;;;;;;24.30;99.90;;;;;;4944948;29;19968;-71
2022/11/23 10:40:58;;;;;;;;;;;24.50;99.90;;;;;;4959519;28;19927;-71
2022/11/23 10:43:26;;;;;;;;;;;24.40;99.90;;;;;;4951464;29;19927;-71
2022/11/23 10:46:14;;;;;;;;;;;23.00;99.90;;;;;;4941768;29;19927;-71
2022/11/23 10:48:43;;;;;;;;;;;22.30;99.90;;;;;;4967059;28;20397;-72
2022/11/23 10:51:17;;;;;;;;;;;23.80;99.90;;;;;;4967316;28;19926;-69
2022/11/23 10:53:44;;;;;;;;;;;24.90;99.90;;;;;;4950222;28;19926;-72
2022/11/23 10:56:13;;;;;;;;;;;26.00;99.90;;;;;;4941632;28;19927;-71
2022/11/23 10:58:43;;;;;;;;;;;25.40;99.90;;;;;;4950645;29;20021;-71
2022/11/23 11:01:12;;;;;;;;;;;23.80;99.90;;;;;;4955265;28;20005;-70
2022/11/23 11:03:39;;;;;;;;;;;19.30;99.90;;;;;;4941961;28;19926;-70
2022/11/23 11:06:06;;;;;;;;;;;16.80;99.90;;;;;;4951422;29;19926;-71
2022/11/23 11:08:34;;;;;;;;;;;15.80;99.90;;;;;;4951094;29;19995;-71
2022/11/23 11:11:02;;;;;;;;;;;16.10;99.90;;;;;;4950930;28;19927;-72
2022/11/23 11:13:31;;;;;;;;;;;19.70;99.90;;;;;;4950982;29;19927;-71
2022/11/23 11:15:59;;;;;;;;;;;17.80;99.90;;;;;;4967676;28;19930;-72
2022/11/23 11:18:28;;;;;;;;;;;21.00;99.90;;;;;;4950999;29;19926;-71
2022/11/23 11:20:56;;;;;;;;;;;23.40;99.90;;;;;;4940781;29;20017;-71
2022/11/23 11:23:23;;;;;;;;;;;21.40;99.90;;;;;;4966807;28;19969;-71
2022/11/23 11:25:51;;;;;;;;;;;19.10;99.90;;;;;;4951045;29;19931;-71
2022/11/23 11:28:23;;;;;;;;;;;18.20;99.90;;;;;;4967100;28;20379;-70
2022/11/23 11:31:02;;;;;;;;;;;17.90;99.90;;;;;;4951371;29;19938;-71
2022/11/23 11:33:32;;;;;;;;;;;19.80;99.90;;;;;;4966654;28;19930;-71
2022/11/23 11:36:00;;;;;;;;;;;19.40;99.90;;;;;;4966929;28;19974;-70
2022/11/23 11:38:28;;;;;;;;;;;17.10;99.90;;;;;;4967024;28;20340;-71
2022/11/23 11:40:57;;;;;;;;;;;15.60;99.90;;;;;;4950818;29;19930;-70
2022/11/23 11:43:27;;;;;;;;;;;14.70;99.90;;;;;;4966774;28;19926;-71
2022/11/23 11:45:57;;;;;;;;;;;13.90;99.90;;;;;;4940651;28;19950;-71
2022/11/23 11:48:27;;;;;;;;;;;13.00;99.90;;;;;;4950822;28;19927;-70
2022/11/23 11:50:56;;;;;;;;;;;12.70;99.90;;;;;;4946062;28;19961;-71
2022/11/23 11:53:27;;;;;;;;;;;12.40;99.90;;;;;;4970287;28;19938;-71
2022/11/23 11:55:55;;;;;;;;;;;12.70;99.90;;;;;;4960699;28;19927;-70
2022/11/23 11:58:24;;;;;;;;;;;12.60;99.90;;;;;;4967750;28;20460;-70
2022/11/23 12:00:51;;;;;;;;;;;12.50;99.90;;;;;;4947910;28;19933;-70
2022/11/23 12:03:25;;;;;;;;;;;12.50;99.90;;;;;;4950710;29;19930;-70
2022/11/23 12:05:53;;;;;;;;;;;13.60;99.90;;;;;;4950746;29;19968;-71
2022/11/23 12:08:23;;;;;;;;;;;15.60;99.90;;;;;;4953026;28;19934;-73
2022/11/23 12:10:52;;;;;;;;;;;19.00;99.90;;;;;;4966643;28;19933;-71
2022/11/23 12:13:19;;;;;;;;;;;18.40;99.90;;;;;;4966651;28;19960;-71
2022/11/23 12:15:47;;;;;;;;;;;19.80;99.90;;;;;;4969753;28;19970;-72
2022/11/23 12:18:30;;;;;;;;;;;21.20;99.90;;;;;;4953746;29;19950;-70
2022/11/23 12:21:00;;;;;;;;;;;21.70;99.90;;;;;;4953659;28;19933;-71
2022/11/23 12:23:33;;;;;;;;;;;22.80;99.90;;;;;;4953733;29;19927;-70
2022/11/23 12:26:07;;;;;;;;;;;23.30;99.90;;;;;;4953945;29;19926;-71
2022/11/23 12:28:44;;;;;;;;;;;24.60;99.90;;;;;;4954219;29;19956;-71
2022/11/23 12:31:14;;;;;;;;;;;24.00;99.90;;;;;;4953678;28;19990;-71
2022/11/23 12:33:52;;;;;;;;;;;23.40;99.90;;;;;;4953239;28;19926;-71
2022/11/23 12:36:39;;;;;;;;;;;23.30;99.90;;;;;;4969844;28;20397;-71
2022/11/23 12:39:12;;;;;;;;;;;23.40;99.90;;;;;;4953552;29;19930;-72
2022/11/23 12:41:43;;;;;;;;;;;23.40;99.90;;;;;;4949608;28;19971;-71
2022/11/23 12:44:18;;;;;;;;;;;23.40;99.90;;;;;;4953454;29;20282;-70
2022/11/23 12:46:47;;;;;;;;;;;23.80;99.90;;;;;;4968334;28;19931;-71
2022/11/23 12:49:21;;;;;;;;;;;21.80;99.90;;;;;;4952921;29;19930;-71
2022/11/23 12:51:52;;;;;;;;;;;22.10;99.90;;;;;;4953058;28;19926;-71
2022/11/23 12:54:29;;;;;;;;;;;21.80;99.90;;;;;;4953509;29;19930;-70
2022/11/23 12:57:03;;;;;;;;;;;21.80;99.90;;;;;;4948293;29;19927;-70
2022/11/23 12:59:32;;;;;;;;;;;22.00;99.90;;;;;;4952134;28;19933;-71
2022/11/23 13:02:01;;;;;;;;;;;20.60;99.90;;;;;;4968284;28;20354;-71
2022/11/23 13:04:43;;;;;;;;;;;19.60;99.90;;;;;;4969125;28;19930;-71
2022/11/23 13:07:43;;;;;;;;;;;19.40;99.90;;;;;;4966299;28;19926;-71
2022/11/23 13:10:15;;;;;;;;;;;18.50;99.90;;;;;;4968832;28;19933;-72
2022/11/23 13:12:58;;;;;;;;;;;17.10;99.90;;;;;;4943437;29;20375;-70
2022/11/23 13:15:32;;;;;;;;;;;16.00;99.90;;;;;;4950956;29;19927;-71
2022/11/23 13:18:01;;;;;;;;;;;14.80;99.90;;;;;;4963204;28;19931;-70
2022/11/23 13:20:30;;;;;;;;;;;14.10;99.90;;;;;;4968470;28;20142;-70
2022/11/23 13:22:58;;;;;;;;;;;13.30;99.90;;;;;;4952300;28;19927;-70
2022/11/23 13:25:27;;;;;;;;;;;12.80;99.90;;;;;;4952394;29;19926;-71
2022/11/23 13:27:55;;;;;;;;;;;12.70;99.90;;;;;;4962877;28;19954;-71
2022/11/23 13:30:24;;;;;;;;;;;12.40;99.90;;;;;;4965939;28;19964;-71
2022/11/23 13:32:56;;;;;;;;;;;12.20;99.90;;;;;;4947835;28;19931;-71
2022/11/23 13:35:41;;;;;;;;;;;12.00;99.90;;;;;;4967717;28;19962;-71
2022/11/23 13:38:18;;;;;;;;;;;11.70;99.90;;;;;;4948098;28;19926;-70
2022/11/23 13:40:46;;;;;;;;;;;11.60;99.90;;;;;;4950182;28;19930;-70
2022/11/23 13:43:15;;;;;;;;;;;11.40;99.90;;;;;;4943061;29;19927;-70
2022/11/23 13:45:42;;;;;;;;;;;11.30;99.90;;;;;;4950015;28;19927;-70
2022/11/23 13:48:15;;;;;;;;;;;11.20;99.90;;;;;;4949596;29;19943;-71
2022/11/23 13:50:56;;;;;;;;;;;11.20;99.90;;;;;;4954272;28;19926;-69
2022/11/23 13:53:25;;;;;;;;;;;11.10;99.90;;;;;;4968195;28;19926;-70
2022/11/23 13:55:53;;;;;;;;;;;11.00;99.90;;;;;;4968348;28;19931;-71
2022/11/23 13:58:40;;;;;;;;;;;11.00;99.90;;;;;;4964688;28;19937;-70
2022/11/23 14:01:07;;;;;;;;;;;10.90;99.90;;;;;;4956450;28;19927;-70
2022/11/23 14:03:48;;;;;;;;;;;10.90;99.90;;;;;;4952661;29;19933;-71
2022/11/23 14:06:20;;;;;;;;;;;10.90;99.90;;;;;;4948730;29;19933;-71
2022/11/23 14:08:47;;;;;;;;;;;10.80;99.90;;;;;;4952443;29;19934;-71
2022/11/23 14:11:20;;;;;;;;;;;10.70;99.90;;;;;;4951680;28;19926;-71
2022/11/23 14:13:51;;;;;;;;;;;10.70;99.90;;;;;;4951363;29;19941;-72
2022/11/23 14:16:26;;;;;;;;;;;10.70;99.90;;;;;;4962713;28;19934;-72
2022/11/23 14:18:56;;;;;;;;;;;10.70;99.90;;;;;;4949044;29;19934;-71
2022/11/23 14:21:27;;;;;;;;;;;10.70;99.90;;;;;;4950054;28;19967;-71
2022/11/23 14:24:02;;;;;;;;;;;10.60;99.90;;;;;;4951754;29;19934;-70
2022/11/23 14:26:34;;;;;;;;;;;10.60;99.90;;;;;;4951630;29;19974;-71
2022/11/23 14:29:07;;;;;;;;;;;10.60;99.90;;;;;;4967749;28;19963;-72
2022/11/23 14:31:38;;;;;;;;;;;10.60;99.90;;;;;;4968231;28;19926;-70
2022/11/23 14:34:10;;;;;;;;;;;10.50;99.90;;;;;;4968420;28;20005;-71
2022/11/23 14:36:41;;;;;;;;;;;10.50;99.90;;;;;;4950439;29;19926;-71
2022/11/23 14:39:38;;;;;;;;;;;10.50;99.90;;;;;;4951977;29;19984;-71
2022/11/23 14:42:10;;;;;;;;;;;10.40;99.90;;;;;;4950565;28;19933;-71
2022/11/23 14:44:40;;;;;;;;;;;10.40;99.90;;;;;;4968328;28;20450;-71
2022/11/23 14:47:07;;;;;;;;;;;10.40;99.90;;;;;;4962140;28;19927;-70
2022/11/23 14:49:35;;;;;;;;;;;10.30;99.90;;;;;;4950825;29;19927;-71
2022/11/23 14:52:03;;;;;;;;;;;10.20;99.90;;;;;;4966679;28;19927;-70
2022/11/23 14:54:30;;;;;;;;;;;10.10;99.90;;;;;;4950427;29;19930;-71
2022/11/23 14:56:59;;;;;;;;;;;9.80;99.90;;;;;;4966436;28;19933;-71
2022/11/23 14:59:28;;;;;;;;;;;9.70;99.90;;;;;;4961478;28;19927;-71
2022/11/23 15:01:56;;;;;;;;;;;9.60;99.90;;;;;;4966880;28;19933;-71
2022/11/23 15:04:24;;;;;;;;;;;9.50;99.90;;;;;;4950188;29;19933;-71
2022/11/23 15:06:53;;;;;;;;;;;9.40;99.90;;;;;;4951511;29;20369;-72
2022/11/23 15:09:27;;;;;;;;;;;9.20;99.90;;;;;;4949442;28;19930;-71
2022/11/23 15:12:05;;;;;;;;;;;9.20;99.90;;;;;;4948697;28;19927;-71
2022/11/23 15:14:33;;;;;;;;;;;9.10;99.90;;;;;;4945487;28;20365;-70
2022/11/23 15:17:13;;;;;;;;;;;9.00;99.90;;;;;;4961946;28;19931;-71
2022/11/23 15:19:40;;;;;;;;;;;8.90;99.90;;;;;;4950516;29;19926;-71
2022/11/23 15:22:12;;;;;;;;;;;8.90;99.90;;;;;;4968573;28;20051;-71
2022/11/23 15:24:39;;;;;;;;;;;8.80;99.90;;;;;;4956775;28;19933;-71
2022/11/23 15:27:06;;;;;;;;;;;8.80;99.90;;;;;;4950211;29;19930;-72
2022/11/23 15:29:35;;;;;;;;;;;8.80;99.90;;;;;;4970970;28;20304;-71
2022/11/23 15:32:02;;;;;;;;;;;8.70;99.90;;;;;;4970611;28;19926;-71
2022/11/23 15:34:30;;;;;;;;;;;8.70;99.90;;;;;;4971657;28;19926;-71
2022/11/23 15:36:57;;;;;;;;;;;8.60;99.90;;;;;;4970765;28;19933;-69
2022/11/23 15:39:24;;;;;;;;;;;8.40;99.90;;;;;;4970574;28;19931;-71
2022/11/23 15:41:51;;;;;;;;;;;8.40;99.90;;;;;;4953899;28;19943;-68
2022/11/23 15:44:23;;;;;;;;;;;8.40;99.90;;;;;;4955017;29;19937;-68
2022/11/23 15:46:52;;;;;;;;;;;8.40;99.90;;;;;;4951893;29;19937;-71
2022/11/23 15:49:20;;;;;;;;;;;8.40;99.90;;;;;;4954227;28;19933;-71
2022/11/23 15:51:47;;;;;;;;;;;8.30;99.90;;;;;;4954308;28;19962;-71
2022/11/23 15:54:15;;;;;;;;;;;8.30;99.90;;;;;;4970549;28;19926;-72
2022/11/23 15:56:44;;;;;;;;;;;8.40;99.90;;;;;;4954772;29;19937;-69
2022/11/23 15:59:20;;;;;;;;;;;8.30;99.90;;;;;;4970241;28;20021;-69
2022/11/23 16:01:47;;;;;;;;;;;8.30;99.90;;;;;;4952705;29;19934;-68
2022/11/23 16:04:24;;;;;;;;;;;8.30;99.90;;;;;;4968966;28;19926;-69
2022/11/23 16:06:50;;;;;;;;;;;8.20;99.90;;;;;;4953835;28;19930;-69
2022/11/23 16:09:34;;;;;;;;;;;8.20;99.90;;;;;;4955628;28;19927;-71
2022/11/23 16:12:01;;;;;;;;;;;8.20;99.90;;;;;;4944404;29;20367;-72
2022/11/23 16:14:29;;;;;;;;;;;8.10;99.90;;;;;;4954393;29;20011;-75
2022/11/23 16:17:00;;;;;;;;;;;7.90;99.90;;;;;;4953998;29;19930;-72
2022/11/23 16:19:29;;;;;;;;;;;7.80;99.90;;;;;;4953679;28;19927;-71
2022/11/23 16:21:58;;;;;;;;;;;7.70;99.90;;;;;;4968287;28;20397;-72
2022/11/23 16:24:25;;;;;;;;;;;7.60;99.90;;;;;;4952251;29;19931;-71
2022/11/23 16:26:52;;;;;;;;;;;7.50;99.90;;;;;;4968512;28;20485;-71
2022/11/23 16:29:21;;;;;;;;;;;7.40;99.90;;;;;;4965931;28;20386;-71
2022/11/23 16:31:52;;;;;;;;;;;7.30;99.90;;;;;;4954606;28;19934;-69
2022/11/23 16:34:19;;;;;;;;;;;7.30;99.90;;;;;;4954496;28;19934;-72
2022/11/23 16:36:47;;;;;;;;;;;7.20;99.90;;;;;;4957675;28;19926;-72
2022/11/23 16:39:14;;;;;;;;;;;7.20;99.90;;;;;;4963409;28;19933;-70
2022/11/23 16:41:41;;;;;;;;;;;7.20;99.90;;;;;;4970463;28;20038;-68
2022/11/23 16:44:08;;;;;;;;;;;7.10;99.90;;;;;;4954941;29;19926;-71
2022/11/23 16:46:35;;;;;;;;;;;7.00;99.90;;;;;;4954823;28;19926;-71
2022/11/23 16:49:01;;;;;;;;;;;7.00;99.90;;;;;;4954687;29;20004;-71
2022/11/23 16:51:28;;;;;;;;;;;7.00;99.90;;;;;;4970331;28;19927;-71
2022/11/23 16:53:57;;;;;;;;;;;7.00;99.90;;;;;;4970341;28;19927;-72
2022/11/23 16:56:26;;;;;;;;;;;7.00;99.90;;;;;;4954179;29;19934;-71
2022/11/23 16:58:53;;;;;;;;;;;7.00;99.90;;;;;;4969345;28;20009;-70
2022/11/23 17:01:20;;;;;;;;;;;7.00;99.90;;;;;;4970445;28;19962;-71
2022/11/23 17:03:47;;;;;;;;;;;6.90;99.90;;;;;;4954167;28;19926;-70
2022/11/23 17:06:16;;;;;;;;;;;6.90;99.90;;;;;;4954304;29;20357;-71
2022/11/23 17:08:43;;;;;;;;;;;7.00;99.90;;;;;;4970680;28;19934;-71
2022/11/23 17:11:13;;;;;;;;;;;7.00;99.90;;;;;;4970652;28;19926;-72
2022/11/23 17:13:41;;;;;;;;;;;7.00;99.90;;;;;;4970209;28;19927;-69
2022/11/23 17:16:09;;;;;;;;;;;7.00;99.90;;;;;;4954223;29;19934;-71
2022/11/23 17:18:36;;;;;;;;;;;7.10;99.90;;;;;;4954203;29;19926;-71
2022/11/23 17:21:03;;;;;;;;;;;7.10;99.90;;;;;;4971636;28;19926;-71
2022/11/23 17:23:30;;;;;;;;;;;7.10;99.90;;;;;;4953527;29;19930;-70
2022/11/23 17:25:57;;;;;;;;;;;7.10;99.90;;;;;;4952156;28;19927;-71
2022/11/23 17:28:26;;;;;;;;;;;7.10;99.90;;;;;;4953908;29;19927;-71
2022/11/23 17:30:53;;;;;;;;;;;7.40;99.90;;;;;;4952569;28;19926;-71
2022/11/23 17:33:20;;;;;;;;;;;7.60;99.90;;;;;;4969589;28;19944;-71
2022/11/23 17:35:47;;;;;;;;;;;7.70;99.90;;;;;;4953597;29;19926;-71
2022/11/23 17:38:15;;;;;;;;;;;7.80;99.90;;;;;;4953364;29;19926;-71
2022/11/23 17:40:42;;;;;;;;;;;7.80;99.90;;;;;;4942331;28;19927;-71
2022/11/23 17:43:11;;;;;;;;;;;7.70;99.90;;;;;;4947001;29;20405;-71
2022/11/23 17:45:40;;;;;;;;;;;7.80;99.90;;;;;;4953401;28;19927;-71
2022/11/23 17:48:09;;;;;;;;;;;7.70;99.90;;;;;;4953550;29;19926;-71
2022/11/23 17:50:36;;;;;;;;;;;7.80;99.90;;;;;;4953354;29;19934;-71
2022/11/23 17:53:03;;;;;;;;;;;7.80;99.90;;;;;;4953203;28;19952;-71
2022/11/23 17:55:30;;;;;;;;;;;7.80;99.90;;;;;;4938954;29;19934;-68
2022/11/23 17:57:56;;;;;;;;;;;7.80;99.90;;;;;;4969020;28;19926;-68
2022/11/23 18:00:24;;;;;;;;;;;7.80;99.90;;;;;;4952464;29;20308;-68
2022/11/23 18:02:52;;;;;;;;;;;7.80;99.90;;;;;;4952934;29;20022;-68
2022/11/23 18:05:19;;;;;;;;;;;7.70;99.90;;;;;;4968245;28;19926;-68
2022/11/23 18:07:45;;;;;;;;;;;7.70;99.90;;;;;;4944093;29;19927;-69
2022/11/23 18:10:13;;;;;;;;;;;7.70;99.90;;;;;;4966113;28;19926;-71
2022/11/23 18:12:43;;;;;;;;;;;7.60;99.90;;;;;;4950829;28;21935;-70
2022/11/23 18:15:10;;;;;;;;;;;7.60;99.90;;;;;;4969345;28;19926;-70
2022/11/23 18:17:37;;;;;;;;;;;7.50;99.90;;;;;;4969103;28;19935;-70
2022/11/23 18:20:06;;;;;;;;;;;7.40;99.90;;;;;;4968911;28;19948;-71
2022/11/23 18:22:33;;;;;;;;;;;7.40;99.90;;;;;;4971517;28;19935;-70
2022/11/23 18:25:00;;;;;;;;;;;7.40;99.90;;;;;;4952759;29;19949;-71
2022/11/23 18:27:28;;;;;;;;;;;7.40;99.90;;;;;;4967915;28;19927;-72
2022/11/23 18:29:55;;;;;;;;;;;7.40;99.90;;;;;;4951814;28;19926;-71
2022/11/23 18:32:21;;;;;;;;;;;7.30;99.90;;;;;;4949900;29;20401;-70
2022/11/23 18:34:48;;;;;;;;;;;7.30;99.90;;;;;;4953658;28;19927;-71
2022/11/23 18:37:16;;;;;;;;;;;7.30;99.90;;;;;;4942109;29;19926;-69
2022/11/23 18:39:43;;;;;;;;;;;7.40;99.90;;;;;;4937907;29;19930;-73
2022/11/23 18:42:10;;;;;;;;;;;7.40;99.90;;;;;;4964388;28;19931;-73